Thornton, Nebraska
Current Conditions -  °F | °C
As of 8:55 AM on Wednesday 22 Oct 2014 (Local Time) from KEAR Reporting Station
Clear Clear  
Wind Chill: 57°   Ceiling: Unl
Heat Index: 57°   Visibility: 10mi
Dew Point: 52°   Wind: 16mph
Humidity: 82%   Direction: 140°SE
Pressure: 29.99"   Gusts: NA
Location:  40.7619°N, 99.1445°W
Report Text: KEAR 221355Z 14014KT 10SM CLR 14/11 A2999 RMK AO1
Loading
Personal Weather Stations






























Interactive Weather Map
Tropical Storm Tracking
New forecast layout! Learn more

10-Day Weather Forecast

Advertisements
Track Severe Weather on mobile